sensor_id;sensor_type;location;lat;lon;timestamp;temperature;humidity
13673;DHT22;6909;52.202;9.876;2024-02-26T00:02:18;1.70;99.90
13673;DHT22;6909;52.202;9.876;2024-02-26T00:04:44;1.60;1.00
13673;DHT22;6909;52.202;9.876;2024-02-26T00:07:11;1.60;99.90
13673;DHT22;6909;52.202;9.876;2024-02-26T00:09:38;1.50;99.90
13673;DHT22;6909;52.202;9.876;2024-02-26T00:12:05;1.40;1.00
13673;DHT22;6909;52.202;9.876;2024-02-26T00:14:31;1.20;99.90
13673;DHT22;6909;52.202;9.876;2024-02-26T00:17:00;1.20;22.20
13673;DHT22;6909;52.202;9.876;2024-02-26T00:19:26;1.20;99.90
13673;DHT22;6909;52.202;9.876;2024-02-26T00:21:53;1.40;99.90
13673;DHT22;6909;52.202;9.876;2024-02-26T00:24:21;1.40;1.00
13673;DHT22;6909;52.202;9.876;2024-02-26T00:26:47;1.50;99.90
13673;DHT22;6909;52.202;9.876;2024-02-26T00:29:18;1.40;1.00
13673;DHT22;6909;52.202;9.876;2024-02-26T00:31:45;1.40;99.90
13673;DHT22;6909;52.202;9.876;2024-02-26T00:34:13;1.40;99.90
13673;DHT22;6909;52.202;9.876;2024-02-26T00:36:39;1.40;99.90
13673;DHT22;6909;52.202;9.876;2024-02-26T00:39:06;1.40;99.90
13673;DHT22;6909;52.202;9.876;2024-02-26T00:41:33;1.40;99.90
13673;DHT22;6909;52.202;9.876;2024-02-26T00:43:59;1.40;1.00
13673;DHT22;6909;52.202;9.876;2024-02-26T00:46:26;1.50;99.90
13673;DHT22;6909;52.202;9.876;2024-02-26T00:48:52;1.60;99.90
13673;DHT22;6909;52.202;9.876;2024-02-26T00:51:20;1.70;1.00
13673;DHT22;6909;52.202;9.876;2024-02-26T00:53:47;1.80;99.90
13673;DHT22;6909;52.202;9.876;2024-02-26T00:56:14;1.80;99.90
13673;DHT22;6909;52.202;9.876;2024-02-26T00:58:41;1.80;42.90
13673;DHT22;6909;52.202;9.876;2024-02-26T01:01:08;1.90;58.00
13673;DHT22;6909;52.202;9.876;2024-02-26T01:03:34;1.90;99.90
13673;DHT22;6909;52.202;9.876;2024-02-26T01:06:01;1.70;27.90
13673;DHT22;6909;52.202;9.876;2024-02-26T01:08:29;1.70;99.90
13673;DHT22;6909;52.202;9.876;2024-02-26T01:10:57;1.70;1.00
13673;DHT22;6909;52.202;9.876;2024-02-26T01:13:23;1.70;43.60
13673;DHT22;6909;52.202;9.876;2024-02-26T01:15:50;1.70;1.00
13673;DHT22;6909;52.202;9.876;2024-02-26T01:18:17;1.70;25.50
13673;DHT22;6909;52.202;9.876;2024-02-26T01:20:43;1.80;1.00
13673;DHT22;6909;52.202;9.876;2024-02-26T01:23:10;1.90;1.00
13673;DHT22;6909;52.202;9.876;2024-02-26T01:25:38;1.90;1.00
13673;DHT22;6909;52.202;9.876;2024-02-26T01:28:05;1.90;99.90
13673;DHT22;6909;52.202;9.876;2024-02-26T01:30:32;1.90;1.00
13673;DHT22;6909;52.202;9.876;2024-02-26T01:32:58;1.90;1.00
13673;DHT22;6909;52.202;9.876;2024-02-26T01:35:25;1.90;99.90
13673;DHT22;6909;52.202;9.876;2024-02-26T01:37:52;1.90;1.00
13673;DHT22;6909;52.202;9.876;2024-02-26T01:40:18;1.80;27.10
13673;DHT22;6909;52.202;9.876;2024-02-26T01:42:46;1.90;1.00
13673;DHT22;6909;52.202;9.876;2024-02-26T01:45:15;1.90;10.60
13673;DHT22;6909;52.202;9.876;2024-02-26T01:47:48;1.90;1.00
13673;DHT22;6909;52.202;9.876;2024-02-26T01:50:15;1.90;99.90
13673;DHT22;6909;52.202;9.876;2024-02-26T01:52:42;1.90;99.90
13673;DHT22;6909;52.202;9.876;2024-02-26T01:55:09;2.00;13.90
13673;DHT22;6909;52.202;9.876;2024-02-26T01:57:36;2.00;60.80
13673;DHT22;6909;52.202;9.876;2024-02-26T02:00:05;2.00;1.00
13673;DHT22;6909;52.202;9.876;2024-02-26T02:02:33;2.00;1.00
13673;DHT22;6909;52.202;9.876;2024-02-26T02:05:01;2.00;1.00
13673;DHT22;6909;52.202;9.876;2024-02-26T02:07:29;2.00;1.00
13673;DHT22;6909;52.202;9.876;2024-02-26T02:09:56;1.90;99.90
13673;DHT22;6909;52.202;9.876;2024-02-26T02:12:22;1.90;1.00
13673;DHT22;6909;52.202;9.876;2024-02-26T02:14:49;2.00;99.90
13673;DHT22;6909;52.202;9.876;2024-02-26T02:17:17;1.90;1.00
13673;DHT22;6909;52.202;9.876;2024-02-26T02:19:44;1.90;1.00
13673;DHT22;6909;52.202;9.876;2024-02-26T02:22:12;1.90;1.00
13673;DHT22;6909;52.202;9.876;2024-02-26T02:24:38;2.00;1.00
13673;DHT22;6909;52.202;9.876;2024-02-26T02:27:05;1.80;31.10
13673;DHT22;6909;52.202;9.876;2024-02-26T02:29:32;1.90;21.90
13673;DHT22;6909;52.202;9.876;2024-02-26T02:31:59;2.00;1.00
13673;DHT22;6909;52.202;9.876;2024-02-26T02:34:27;2.00;99.90
13673;DHT22;6909;52.202;9.876;2024-02-26T02:36:54;2.10;99.90
13673;DHT22;6909;52.202;9.876;2024-02-26T02:39:22;2.20;99.90
13673;DHT22;6909;52.202;9.876;2024-02-26T02:41:49;2.10;99.90
13673;DHT22;6909;52.202;9.876;2024-02-26T02:44:16;2.10;1.00
13673;DHT22;6909;52.202;9.876;2024-02-26T02:46:42;1.90;99.90
13673;DHT22;6909;52.202;9.876;2024-02-26T02:49:09;1.80;1.00
13673;DHT22;6909;52.202;9.876;2024-02-26T02:51:36;2.00;1.00
13673;DHT22;6909;52.202;9.876;2024-02-26T02:54:03;2.10;1.00
13673;DHT22;6909;52.202;9.876;2024-02-26T02:56:31;2.10;99.90
13673;DHT22;6909;52.202;9.876;2024-02-26T02:58:57;2.20;99.90
13673;DHT22;6909;52.202;9.876;2024-02-26T03:01:24;2.30;3.90
13673;DHT22;6909;52.202;9.876;2024-02-26T03:03:51;2.40;1.00
13673;DHT22;6909;52.202;9.876;2024-02-26T03:06:17;2.40;1.00
13673;DHT22;6909;52.202;9.876;2024-02-26T03:08:44;2.30;1.00
13673;DHT22;6909;52.202;9.876;2024-02-26T03:11:13;2.20;99.90
13673;DHT22;6909;52.202;9.876;2024-02-26T03:13:41;2.20;99.90
13673;DHT22;6909;52.202;9.876;2024-02-26T03:16:08;2.20;99.90
13673;DHT22;6909;52.202;9.876;2024-02-26T03:18:35;2.20;1.00
13673;DHT22;6909;52.202;9.876;2024-02-26T03:21:02;2.20;1.00
13673;DHT22;6909;52.202;9.876;2024-02-26T03:23:29;2.10;1.00
13673;DHT22;6909;52.202;9.876;2024-02-26T03:25:56;2.10;1.00
13673;DHT22;6909;52.202;9.876;2024-02-26T03:28:22;1.80;1.00
13673;DHT22;6909;52.202;9.876;2024-02-26T03:30:50;1.90;99.90
13673;DHT22;6909;52.202;9.876;2024-02-26T03:33:17;1.90;99.90
13673;DHT22;6909;52.202;9.876;2024-02-26T03:35:44;1.90;99.90
13673;DHT22;6909;52.202;9.876;2024-02-26T03:38:13;2.00;1.00
13673;DHT22;6909;52.202;9.876;2024-02-26T03:40:40;2.00;1.00
13673;DHT22;6909;52.202;9.876;2024-02-26T03:43:06;1.80;99.90
13673;DHT22;6909;52.202;9.876;2024-02-26T03:45:33;1.80;1.00
13673;DHT22;6909;52.202;9.876;2024-02-26T03:48:01;1.90;1.00
13673;DHT22;6909;52.202;9.876;2024-02-26T03:50:28;2.00;1.00
13673;DHT22;6909;52.202;9.876;2024-02-26T03:52:55;2.00;1.00
13673;DHT22;6909;52.202;9.876;2024-02-26T03:55:22;2.00;1.00
13673;DHT22;6909;52.202;9.876;2024-02-26T03:57:50;2.00;1.00
13673;DHT22;6909;52.202;9.876;2024-02-26T04:00:17;1.90;99.90
13673;DHT22;6909;52.202;9.876;2024-02-26T04:02:44;2.10;1.00
13673;DHT22;6909;52.202;9.876;2024-02-26T04:05:12;2.10;99.90
13673;DHT22;6909;52.202;9.876;2024-02-26T04:07:39;2.10;99.90
13673;DHT22;6909;52.202;9.876;2024-02-26T04:10:09;2.00;58.30
13673;DHT22;6909;52.202;9.876;2024-02-26T04:12:38;1.80;99.90
13673;DHT22;6909;52.202;9.876;2024-02-26T04:15:06;1.80;1.00
13673;DHT22;6909;52.202;9.876;2024-02-26T04:17:33;1.80;1.00
13673;DHT22;6909;52.202;9.876;2024-02-26T04:19:59;1.90;1.00
13673;DHT22;6909;52.202;9.876;2024-02-26T04:22:27;1.90;1.00
13673;DHT22;6909;52.202;9.876;2024-02-26T04:24:54;1.90;1.00
13673;DHT22;6909;52.202;9.876;2024-02-26T04:27:21;2.10;99.90
13673;DHT22;6909;52.202;9.876;2024-02-26T04:29:47;2.20;99.90
13673;DHT22;6909;52.202;9.876;2024-02-26T04:32:14;2.30;1.00
13673;DHT22;6909;52.202;9.876;2024-02-26T04:34:40;2.30;99.90
13673;DHT22;6909;52.202;9.876;2024-02-26T04:37:08;2.40;1.00
13673;DHT22;6909;52.202;9.876;2024-02-26T04:39:36;2.40;1.00
13673;DHT22;6909;52.202;9.876;2024-02-26T04:42:02;2.40;1.00
13673;DHT22;6909;52.202;9.876;2024-02-26T04:44:29;2.40;1.00
13673;DHT22;6909;52.202;9.876;2024-02-26T04:46:56;2.30;1.00
13673;DHT22;6909;52.202;9.876;2024-02-26T04:49:23;2.30;99.90
13673;DHT22;6909;52.202;9.876;2024-02-26T04:51:49;2.20;1.00
13673;DHT22;6909;52.202;9.876;2024-02-26T04:54:16;2.20;99.90
13673;DHT22;6909;52.202;9.876;2024-02-26T04:56:44;2.20;1.00
13673;DHT22;6909;52.202;9.876;2024-02-26T04:59:11;2.20;99.90
13673;DHT22;6909;52.202;9.876;2024-02-26T05:01:37;2.20;99.90
13673;DHT22;6909;52.202;9.876;2024-02-26T05:04:07;2.20;99.90
13673;DHT22;6909;52.202;9.876;2024-02-26T05:06:36;2.30;1.00
13673;DHT22;6909;52.202;9.876;2024-02-26T05:09:03;2.30;1.00
13673;DHT22;6909;52.202;9.876;2024-02-26T05:11:30;2.40;1.00
13673;DHT22;6909;52.202;9.876;2024-02-26T05:13:57;2.50;1.00
13673;DHT22;6909;52.202;9.876;2024-02-26T05:16:25;2.70;1.00
13673;DHT22;6909;52.202;9.876;2024-02-26T05:18:52;2.80;97.40
13673;DHT22;6909;52.202;9.876;2024-02-26T05:21:19;2.90;1.00
13673;DHT22;6909;52.202;9.876;2024-02-26T05:23:45;2.90;90.10
13673;DHT22;6909;52.202;9.876;2024-02-26T05:26:19;3.00;1.00
13673;DHT22;6909;52.202;9.876;2024-02-26T05:28:46;3.00;99.90
13673;DHT22;6909;52.202;9.876;2024-02-26T05:31:14;3.00;1.00
13673;DHT22;6909;52.202;9.876;2024-02-26T05:33:43;3.00;1.00
13673;DHT22;6909;52.202;9.876;2024-02-26T05:36:10;3.00;1.00
13673;DHT22;6909;52.202;9.876;2024-02-26T05:38:36;3.00;99.90
13673;DHT22;6909;52.202;9.876;2024-02-26T05:41:03;2.90;99.90
13673;DHT22;6909;52.202;9.876;2024-02-26T05:43:31;2.90;99.90
13673;DHT22;6909;52.202;9.876;2024-02-26T05:46:03;2.90;99.90
13673;DHT22;6909;52.202;9.876;2024-02-26T05:48:31;2.90;99.90
13673;DHT22;6909;52.202;9.876;2024-02-26T05:50:57;2.90;1.00
13673;DHT22;6909;52.202;9.876;2024-02-26T05:53:24;2.80;99.90
13673;DHT22;6909;52.202;9.876;2024-02-26T05:55:51;2.90;1.00
13673;DHT22;6909;52.202;9.876;2024-02-26T05:58:17;2.90;99.90
13673;DHT22;6909;52.202;9.876;2024-02-26T06:00:44;2.90;99.90
13673;DHT22;6909;52.202;9.876;2024-02-26T06:03:11;2.90;99.90
13673;DHT22;6909;52.202;9.876;2024-02-26T06:05:39;2.90;99.90
13673;DHT22;6909;52.202;9.876;2024-02-26T06:08:06;2.90;99.90
13673;DHT22;6909;52.202;9.876;2024-02-26T06:10:33;2.90;99.90
13673;DHT22;6909;52.202;9.876;2024-02-26T06:12:59;2.90;99.90
13673;DHT22;6909;52.202;9.876;2024-02-26T06:15:26;2.90;99.90
13673;DHT22;6909;52.202;9.876;2024-02-26T06:17:53;2.80;99.90
13673;DHT22;6909;52.202;9.876;2024-02-26T06:20:19;2.80;99.90
13673;DHT22;6909;52.202;9.876;2024-02-26T06:22:47;2.80;99.90
13673;DHT22;6909;52.202;9.876;2024-02-26T06:25:14;2.90;1.00
13673;DHT22;6909;52.202;9.876;2024-02-26T06:27:41;2.90;99.90
13673;DHT22;6909;52.202;9.876;2024-02-26T06:30:08;2.90;99.90
13673;DHT22;6909;52.202;9.876;2024-02-26T06:32:36;2.80;99.90
13673;DHT22;6909;52.202;9.876;2024-02-26T06:35:03;2.70;99.90
13673;DHT22;6909;52.202;9.876;2024-02-26T06:37:33;2.70;35.20
13673;DHT22;6909;52.202;9.876;2024-02-26T06:40:02;2.70;99.90
13673;DHT22;6909;52.202;9.876;2024-02-26T06:42:29;2.80;99.90
13673;DHT22;6909;52.202;9.876;2024-02-26T06:44:56;2.90;99.90
13673;DHT22;6909;52.202;9.876;2024-02-26T06:47:22;2.90;1.00
13673;DHT22;6909;52.202;9.876;2024-02-26T06:49:49;2.90;99.90
13673;DHT22;6909;52.202;9.876;2024-02-26T06:52:16;2.90;99.90
13673;DHT22;6909;52.202;9.876;2024-02-26T06:54:42;2.80;99.90
13673;DHT22;6909;52.202;9.876;2024-02-26T06:57:11;2.80;99.90
13673;DHT22;6909;52.202;9.876;2024-02-26T06:59:38;2.90;99.90
13673;DHT22;6909;52.202;9.876;2024-02-26T07:02:05;3.00;1.00
13673;DHT22;6909;52.202;9.876;2024-02-26T07:04:32;2.90;38.50
13673;DHT22;6909;52.202;9.876;2024-02-26T07:06:59;2.90;1.00
13673;DHT22;6909;52.202;9.876;2024-02-26T07:09:25;3.00;1.00
13673;DHT22;6909;52.202;9.876;2024-02-26T07:11:52;3.10;99.90
13673;DHT22;6909;52.202;9.876;2024-02-26T07:14:20;3.10;1.00
13673;DHT22;6909;52.202;9.876;2024-02-26T07:16:47;3.20;1.00
13673;DHT22;6909;52.202;9.876;2024-02-26T07:19:13;3.20;99.90
13673;DHT22;6909;52.202;9.876;2024-02-26T07:21:42;3.20;99.90
13673;DHT22;6909;52.202;9.876;2024-02-26T07:24:09;3.20;99.90
13673;DHT22;6909;52.202;9.876;2024-02-26T07:26:36;3.10;99.90
13673;DHT22;6909;52.202;9.876;2024-02-26T07:29:02;3.20;99.90
13673;DHT22;6909;52.202;9.876;2024-02-26T07:31:31;3.20;99.90
13673;DHT22;6909;52.202;9.876;2024-02-26T07:33:57;3.30;99.90
13673;DHT22;6909;52.202;9.876;2024-02-26T07:36:24;3.50;99.90
13673;DHT22;6909;52.202;9.876;2024-02-26T07:38:51;3.50;99.90
13673;DHT22;6909;52.202;9.876;2024-02-26T07:41:19;3.40;99.90
13673;DHT22;6909;52.202;9.876;2024-02-26T07:43:46;3.50;99.90
13673;DHT22;6909;52.202;9.876;2024-02-26T07:46:14;3.50;99.90
13673;DHT22;6909;52.202;9.876;2024-02-26T07:48:42;3.60;99.90
13673;DHT22;6909;52.202;9.876;2024-02-26T07:51:11;3.70;99.90
13673;DHT22;6909;52.202;9.876;2024-02-26T07:53:38;3.80;99.90
13673;DHT22;6909;52.202;9.876;2024-02-26T07:56:05;3.80;99.90
13673;DHT22;6909;52.202;9.876;2024-02-26T07:58:32;3.80;99.90
13673;DHT22;6909;52.202;9.876;2024-02-26T08:00:59;3.80;99.90
13673;DHT22;6909;52.202;9.876;2024-02-26T08:03:25;3.90;99.90
13673;DHT22;6909;52.202;9.876;2024-02-26T08:05:53;3.90;99.90
13673;DHT22;6909;52.202;9.876;2024-02-26T08:08:20;3.90;99.90
13673;DHT22;6909;52.202;9.876;2024-02-26T08:10:47;3.90;99.90
13673;DHT22;6909;52.202;9.876;2024-02-26T08:13:13;3.90;99.90
13673;DHT22;6909;52.202;9.876;2024-02-26T08:15:40;4.00;99.90
13673;DHT22;6909;52.202;9.876;2024-02-26T08:18:07;4.00;99.90
13673;DHT22;6909;52.202;9.876;2024-02-26T08:20:34;4.10;99.90
13673;DHT22;6909;52.202;9.876;2024-02-26T08:23:02;4.10;99.90
13673;DHT22;6909;52.202;9.876;2024-02-26T08:25:28;4.10;99.90
13673;DHT22;6909;52.202;9.876;2024-02-26T08:27:55;4.00;99.90
13673;DHT22;6909;52.202;9.876;2024-02-26T08:30:22;4.00;99.90
13673;DHT22;6909;52.202;9.876;2024-02-26T08:32:49;4.00;99.90
13673;DHT22;6909;52.202;9.876;2024-02-26T08:35:15;4.10;99.90
13673;DHT22;6909;52.202;9.876;2024-02-26T08:37:44;4.10;99.90
13673;DHT22;6909;52.202;9.876;2024-02-26T08:40:12;4.10;99.90
13673;DHT22;6909;52.202;9.876;2024-02-26T08:42:39;4.10;99.90
13673;DHT22;6909;52.202;9.876;2024-02-26T08:45:07;4.10;99.90
13673;DHT22;6909;52.202;9.876;2024-02-26T08:47:33;4.10;99.90
13673;DHT22;6909;52.202;9.876;2024-02-26T08:50:00;4.10;99.90
13673;DHT22;6909;52.202;9.876;2024-02-26T08:52:27;4.20;99.90
13673;DHT22;6909;52.202;9.876;2024-02-26T08:54:54;4.30;99.90
13673;DHT22;6909;52.202;9.876;2024-02-26T08:57:22;4.40;99.90
13673;DHT22;6909;52.202;9.876;2024-02-26T08:59:52;4.50;99.90
13673;DHT22;6909;52.202;9.876;2024-02-26T09:02:19;4.50;99.90
13673;DHT22;6909;52.202;9.876;2024-02-26T09:04:46;4.60;99.90
13673;DHT22;6909;52.202;9.876;2024-02-26T09:07:12;4.60;99.90
13673;DHT22;6909;52.202;9.876;2024-02-26T09:09:39;4.70;99.90
13673;DHT22;6909;52.202;9.876;2024-02-26T09:12:06;4.80;99.90
13673;DHT22;6909;52.202;9.876;2024-02-26T09:14:34;4.90;99.90
13673;DHT22;6909;52.202;9.876;2024-02-26T09:17:01;4.80;99.90
13673;DHT22;6909;52.202;9.876;2024-02-26T09:19:27;4.80;99.90
13673;DHT22;6909;52.202;9.876;2024-02-26T09:21:54;4.80;99.90
13673;DHT22;6909;52.202;9.876;2024-02-26T09:24:23;4.90;99.90
13673;DHT22;6909;52.202;9.876;2024-02-26T09:26:50;4.90;99.90
13673;DHT22;6909;52.202;9.876;2024-02-26T09:29:17;4.90;99.90
13673;DHT22;6909;52.202;9.876;2024-02-26T09:31:45;4.90;99.90
13673;DHT22;6909;52.202;9.876;2024-02-26T09:34:12;5.00;99.90
13673;DHT22;6909;52.202;9.876;2024-02-26T09:36:39;5.00;99.90
13673;DHT22;6909;52.202;9.876;2024-02-26T09:39:06;5.10;99.90
13673;DHT22;6909;52.202;9.876;2024-02-26T09:41:36;5.20;99.90
13673;DHT22;6909;52.202;9.876;2024-02-26T09:44:04;5.30;99.90
13673;DHT22;6909;52.202;9.876;2024-02-26T09:46:31;5.50;99.90
13673;DHT22;6909;52.202;9.876;2024-02-26T09:48:59;5.70;99.90
13673;DHT22;6909;52.202;9.876;2024-02-26T09:51:26;5.80;99.90
13673;DHT22;6909;52.202;9.876;2024-02-26T09:53:55;5.90;99.90
13673;DHT22;6909;52.202;9.876;2024-02-26T09:56:23;5.80;99.90
13673;DHT22;6909;52.202;9.876;2024-02-26T09:58:51;5.90;99.90
13673;DHT22;6909;52.202;9.876;2024-02-26T10:01:20;5.90;99.90
13673;DHT22;6909;52.202;9.876;2024-02-26T10:03:51;5.80;99.90
13673;DHT22;6909;52.202;9.876;2024-02-26T10:06:20;5.80;99.90
13673;DHT22;6909;52.202;9.876;2024-02-26T10:08:47;5.80;99.90
13673;DHT22;6909;52.202;9.876;2024-02-26T10:11:15;5.90;99.90
13673;DHT22;6909;52.202;9.876;2024-02-26T10:13:44;6.10;99.90
13673;DHT22;6909;52.202;9.876;2024-02-26T10:16:12;6.00;99.90
13673;DHT22;6909;52.202;9.876;2024-02-26T10:18:45;5.90;99.90
13673;DHT22;6909;52.202;9.876;2024-02-26T10:21:12;6.00;99.90
13673;DHT22;6909;52.202;9.876;2024-02-26T10:23:40;6.00;99.90
13673;DHT22;6909;52.202;9.876;2024-02-26T10:26:08;6.00;99.90
13673;DHT22;6909;52.202;9.876;2024-02-26T10:28:36;6.00;99.90
13673;DHT22;6909;52.202;9.876;2024-02-26T10:31:03;6.10;99.90
13673;DHT22;6909;52.202;9.876;2024-02-26T10:33:32;6.00;99.90
13673;DHT22;6909;52.202;9.876;2024-02-26T10:35:59;6.00;99.90
13673;DHT22;6909;52.202;9.876;2024-02-26T10:38:26;6.00;99.90
13673;DHT22;6909;52.202;9.876;2024-02-26T10:40:54;6.00;99.90
13673;DHT22;6909;52.202;9.876;2024-02-26T10:43:21;6.10;99.90
13673;DHT22;6909;52.202;9.876;2024-02-26T10:45:47;6.00;99.90
13673;DHT22;6909;52.202;9.876;2024-02-26T10:48:14;6.00;99.90
13673;DHT22;6909;52.202;9.876;2024-02-26T10:50:44;6.10;99.90
13673;DHT22;6909;52.202;9.876;2024-02-26T10:53:15;6.10;99.90
13673;DHT22;6909;52.202;9.876;2024-02-26T10:55:43;6.10;99.90
13673;DHT22;6909;52.202;9.876;2024-02-26T10:58:14;6.20;99.90
13673;DHT22;6909;52.202;9.876;2024-02-26T11:00:43;6.20;99.90
13673;DHT22;6909;52.202;9.876;2024-02-26T11:03:10;6.20;99.90
13673;DHT22;6909;52.202;9.876;2024-02-26T11:05:39;6.30;99.90
13673;DHT22;6909;52.202;9.876;2024-02-26T11:08:06;6.30;99.90
13673;DHT22;6909;52.202;9.876;2024-02-26T11:10:33;6.40;99.90
13673;DHT22;6909;52.202;9.876;2024-02-26T11:13:01;6.40;99.90
13673;DHT22;6909;52.202;9.876;2024-02-26T11:15:30;6.50;99.90
13673;DHT22;6909;52.202;9.876;2024-02-26T11:18:00;6.50;99.90
13673;DHT22;6909;52.202;9.876;2024-02-26T11:20:28;6.50;99.90
13673;DHT22;6909;52.202;9.876;2024-02-26T11:22:55;6.50;99.90
13673;DHT22;6909;52.202;9.876;2024-02-26T11:25:22;6.70;99.90
13673;DHT22;6909;52.202;9.876;2024-02-26T11:27:54;6.80;53.20
13673;DHT22;6909;52.202;9.876;2024-02-26T11:30:23;6.90;91.50
13673;DHT22;6909;52.202;9.876;2024-02-26T11:32:52;6.90;43.40
13673;DHT22;6909;52.202;9.876;2024-02-26T11:35:19;7.00;1.00
13673;DHT22;6909;52.202;9.876;2024-02-26T11:37:53;7.00;6.70
13673;DHT22;6909;52.202;9.876;2024-02-26T11:40:22;7.00;26.80
13673;DHT22;6909;52.202;9.876;2024-02-26T11:42:50;6.90;1.00
13673;DHT22;6909;52.202;9.876;2024-02-26T11:45:48;7.00;1.00
13673;DHT22;6909;52.202;9.876;2024-02-26T11:48:19;7.00;1.00
13673;DHT22;6909;52.202;9.876;2024-02-26T11:50:48;7.00;1.00
13673;DHT22;6909;52.202;9.876;2024-02-26T11:53:25;7.00;1.00
13673;DHT22;6909;52.202;9.876;2024-02-26T11:56:19;7.00;1.00
13673;DHT22;6909;52.202;9.876;2024-02-26T11:58:46;7.10;1.00
13673;DHT22;6909;52.202;9.876;2024-02-26T12:01:40;7.00;1.00
13673;DHT22;6909;52.202;9.876;2024-02-26T12:04:13;7.00;1.00
13673;DHT22;6909;52.202;9.876;2024-02-26T12:06:43;7.00;1.00
13673;DHT22;6909;52.202;9.876;2024-02-26T12:09:10;7.00;1.00
13673;DHT22;6909;52.202;9.876;2024-02-26T12:11:40;7.10;20.60
13673;DHT22;6909;52.202;9.876;2024-02-26T12:14:09;7.10;1.00
13673;DHT22;6909;52.202;9.876;2024-02-26T12:16:37;7.20;1.00
13673;DHT22;6909;52.202;9.876;2024-02-26T12:19:05;7.30;1.00
13673;DHT22;6909;52.202;9.876;2024-02-26T12:21:35;7.30;1.00
13673;DHT22;6909;52.202;9.876;2024-02-26T12:24:13;7.40;1.00
13673;DHT22;6909;52.202;9.876;2024-02-26T12:26:41;7.60;1.00
13673;DHT22;6909;52.202;9.876;2024-02-26T12:29:08;7.70;1.00
13673;DHT22;6909;52.202;9.876;2024-02-26T12:31:35;7.70;1.00
13673;DHT22;6909;52.202;9.876;2024-02-26T12:34:04;7.70;1.00
13673;DHT22;6909;52.202;9.876;2024-02-26T12:36:31;7.60;1.00
13673;DHT22;6909;52.202;9.876;2024-02-26T12:39:01;7.60;1.00
13673;DHT22;6909;52.202;9.876;2024-02-26T12:41:31;7.70;1.00
13673;DHT22;6909;52.202;9.876;2024-02-26T12:43:59;7.70;1.00
13673;DHT22;6909;52.202;9.876;2024-02-26T12:46:26;7.70;1.00
13673;DHT22;6909;52.202;9.876;2024-02-26T12:48:56;7.80;1.00
13673;DHT22;6909;52.202;9.876;2024-02-26T12:51:25;7.80;1.00
13673;DHT22;6909;52.202;9.876;2024-02-26T12:53:52;7.90;1.00
13673;DHT22;6909;52.202;9.876;2024-02-26T12:56:20;7.90;1.00
13673;DHT22;6909;52.202;9.876;2024-02-26T12:58:48;8.10;1.00
13673;DHT22;6909;52.202;9.876;2024-02-26T13:01:19;8.00;1.00
13673;DHT22;6909;52.202;9.876;2024-02-26T13:03:49;7.90;1.00
13673;DHT22;6909;52.202;9.876;2024-02-26T13:06:16;8.00;1.00
13673;DHT22;6909;52.202;9.876;2024-02-26T13:08:43;7.90;1.00
13673;DHT22;6909;52.202;9.876;2024-02-26T13:11:10;8.00;1.00
13673;DHT22;6909;52.202;9.876;2024-02-26T13:13:38;8.00;1.00
13673;DHT22;6909;52.202;9.876;2024-02-26T13:16:05;8.00;1.00
13673;DHT22;6909;52.202;9.876;2024-02-26T13:18:33;8.00;1.00
13673;DHT22;6909;52.202;9.876;2024-02-26T13:21:08;8.10;1.00
13673;DHT22;6909;52.202;9.876;2024-02-26T13:23:35;8.20;1.00
13673;DHT22;6909;52.202;9.876;2024-02-26T13:26:02;8.10;1.00
13673;DHT22;6909;52.202;9.876;2024-02-26T13:28:29;8.10;1.00
13673;DHT22;6909;52.202;9.876;2024-02-26T13:30:57;8.10;1.00
13673;DHT22;6909;52.202;9.876;2024-02-26T13:33:26;8.20;1.00
13673;DHT22;6909;52.202;9.876;2024-02-26T13:35:53;8.20;1.00
13673;DHT22;6909;52.202;9.876;2024-02-26T13:38:20;8.30;1.00
13673;DHT22;6909;52.202;9.876;2024-02-26T13:40:47;8.40;1.00
13673;DHT22;6909;52.202;9.876;2024-02-26T13:43:14;8.30;1.00
13673;DHT22;6909;52.202;9.876;2024-02-26T13:45:40;8.40;1.00
13673;DHT22;6909;52.202;9.876;2024-02-26T13:48:09;8.30;1.00
13673;DHT22;6909;52.202;9.876;2024-02-26T13:50:38;8.30;1.00
13673;DHT22;6909;52.202;9.876;2024-02-26T13:53:05;8.20;1.00
13673;DHT22;6909;52.202;9.876;2024-02-26T13:55:32;8.20;1.00
13673;DHT22;6909;52.202;9.876;2024-02-26T13:57:59;8.20;1.00
13673;DHT22;6909;52.202;9.876;2024-02-26T14:00:27;8.20;1.00
13673;DHT22;6909;52.202;9.876;2024-02-26T14:02:53;8.10;1.00
13673;DHT22;6909;52.202;9.876;2024-02-26T14:05:22;8.10;1.00
13673;DHT22;6909;52.202;9.876;2024-02-26T14:07:48;8.10;1.00
13673;DHT22;6909;52.202;9.876;2024-02-26T14:10:15;8.10;1.00
13673;DHT22;6909;52.202;9.876;2024-02-26T14:12:42;8.10;1.00
13673;DHT22;6909;52.202;9.876;2024-02-26T14:15:10;8.20;1.00
13673;DHT22;6909;52.202;9.876;2024-02-26T14:17:37;8.20;1.00
13673;DHT22;6909;52.202;9.876;2024-02-26T14:20:04;8.20;1.00
13673;DHT22;6909;52.202;9.876;2024-02-26T14:22:34;8.20;1.00
13673;DHT22;6909;52.202;9.876;2024-02-26T14:25:01;8.20;1.00
13673;DHT22;6909;52.202;9.876;2024-02-26T14:27:28;8.10;1.00
13673;DHT22;6909;52.202;9.876;2024-02-26T14:29:55;8.10;1.00
13673;DHT22;6909;52.202;9.876;2024-02-26T14:32:21;8.10;1.00
13673;DHT22;6909;52.202;9.876;2024-02-26T14:34:48;8.00;1.00
13673;DHT22;6909;52.202;9.876;2024-02-26T14:37:14;8.00;1.00
13673;DHT22;6909;52.202;9.876;2024-02-26T14:39:43;8.10;1.00
13673;DHT22;6909;52.202;9.876;2024-02-26T14:42:09;8.00;1.00
13673;DHT22;6909;52.202;9.876;2024-02-26T14:44:36;8.00;1.00
13673;DHT22;6909;52.202;9.876;2024-02-26T14:47:03;8.00;1.00
13673;DHT22;6909;52.202;9.876;2024-02-26T14:49:30;8.00;11.50
13673;DHT22;6909;52.202;9.876;2024-02-26T14:51:57;8.00;42.30
13673;DHT22;6909;52.202;9.876;2024-02-26T14:54:23;8.00;45.10
13673;DHT22;6909;52.202;9.876;2024-02-26T14:56:51;8.00;47.50
13673;DHT22;6909;52.202;9.876;2024-02-26T14:59:18;8.00;99.90
13673;DHT22;6909;52.202;9.876;2024-02-26T15:01:45;8.00;99.90
13673;DHT22;6909;52.202;9.876;2024-02-26T15:04:11;8.00;99.90
13673;DHT22;6909;52.202;9.876;2024-02-26T15:06:38;8.00;99.90
13673;DHT22;6909;52.202;9.876;2024-02-26T15:09:05;8.00;99.90
13673;DHT22;6909;52.202;9.876;2024-02-26T15:11:32;8.00;99.90
13673;DHT22;6909;52.202;9.876;2024-02-26T15:14:00;8.00;99.90
13673;DHT22;6909;52.202;9.876;2024-02-26T15:16:29;8.00;99.90
13673;DHT22;6909;52.202;9.876;2024-02-26T15:18:56;8.00;99.90
13673;DHT22;6909;52.202;9.876;2024-02-26T15:21:23;8.00;99.90
13673;DHT22;6909;52.202;9.876;2024-02-26T15:23:50;8.00;99.90
13673;DHT22;6909;52.202;9.876;2024-02-26T15:26:18;8.00;99.90
13673;DHT22;6909;52.202;9.876;2024-02-26T15:28:45;8.00;99.90
13673;DHT22;6909;52.202;9.876;2024-02-26T15:31:15;7.90;99.90
13673;DHT22;6909;52.202;9.876;2024-02-26T15:33:41;8.00;99.90
13673;DHT22;6909;52.202;9.876;2024-02-26T15:36:08;8.00;99.90
13673;DHT22;6909;52.202;9.876;2024-02-26T15:38:36;7.90;99.90
13673;DHT22;6909;52.202;9.876;2024-02-26T15:41:02;7.90;99.90
13673;DHT22;6909;52.202;9.876;2024-02-26T15:43:31;7.90;99.90
13673;DHT22;6909;52.202;9.876;2024-02-26T15:45:58;7.80;99.90
13673;DHT22;6909;52.202;9.876;2024-02-26T15:48:28;7.80;99.90
13673;DHT22;6909;52.202;9.876;2024-02-26T15:50:55;7.80;99.90
13673;DHT22;6909;52.202;9.876;2024-02-26T15:53:21;7.80;99.90
13673;DHT22;6909;52.202;9.876;2024-02-26T15:55:48;7.80;99.90
13673;DHT22;6909;52.202;9.876;2024-02-26T15:58:15;7.70;99.90
13673;DHT22;6909;52.202;9.876;2024-02-26T16:00:42;7.70;99.90
13673;DHT22;6909;52.202;9.876;2024-02-26T16:03:09;7.70;99.90
13673;DHT22;6909;52.202;9.876;2024-02-26T16:05:38;7.70;99.90
13673;DHT22;6909;52.202;9.876;2024-02-26T16:08:08;7.70;99.90
13673;DHT22;6909;52.202;9.876;2024-02-26T16:10:36;7.70;99.90